createdAt,value
2019-03-30T00:00:36.403Z,62.69
2019-03-30T00:03:07.686Z,62.84
2019-03-30T00:05:39.011Z,62.89
2019-03-30T00:08:16.104Z,62.86
2019-03-30T00:10:48.241Z,63.06
2019-03-30T00:13:19.416Z,62.72
2019-03-30T00:15:50.551Z,63.20
2019-03-30T00:18:21.703Z,63.32
2019-03-30T00:20:52.977Z,63.25
2019-03-30T00:23:24.275Z,63.36
2019-03-30T00:25:55.385Z,62.76
2019-03-30T00:28:26.517Z,63.42
2019-03-30T00:30:57.628Z,64.05
2019-03-30T00:33:33.256Z,64.03
2019-03-30T00:36:04.445Z,64.00
2019-03-30T00:38:37.690Z,63.71
2019-03-30T00:41:18.048Z,63.13
2019-03-30T00:43:49.264Z,63.24
2019-03-30T00:46:20.470Z,63.57
2019-03-30T00:48:51.635Z,63.52
2019-03-30T00:51:22.739Z,63.43
2019-03-30T00:53:54.004Z,63.50
2019-03-30T00:56:26.109Z,63.74
2019-03-30T00:58:57.201Z,64.19
2019-03-30T01:01:28.325Z,63.96
2019-03-30T01:03:59.446Z,64.10
2019-03-30T01:06:30.699Z,64.06
2019-03-30T01:09:01.880Z,64.32
2019-03-30T01:11:33.159Z,64.08
2019-03-30T01:14:10.344Z,63.82
2019-03-30T01:16:42.006Z,64.18
2019-03-30T01:19:13.208Z,64.51
2019-03-30T01:21:45.415Z,64.76
2019-03-30T01:24:17.552Z,65.25
2019-03-30T01:26:48.843Z,65.11
2019-03-30T01:29:20.181Z,65.37
2019-03-30T01:31:51.289Z,65.12
2019-03-30T01:34:44.346Z,65.85
2019-03-30T01:37:15.776Z,65.35
2019-03-30T01:39:52.634Z,65.41
2019-03-30T01:42:23.679Z,64.98
2019-03-30T01:45:03.205Z,65.40
2019-03-30T01:47:34.303Z,65.67
2019-03-30T01:50:17.369Z,66.11
2019-03-30T01:52:42.990Z,65.72
2019-03-30T01:55:14.226Z,66.04
2019-03-30T01:57:45.367Z,65.97
2019-03-30T02:00:17.051Z,65.41
2019-03-30T02:02:48.195Z,65.40
2019-03-30T02:05:19.332Z,65.61
2019-03-30T02:07:50.435Z,66.10
2019-03-30T02:10:38.798Z,66.06
2019-03-30T02:13:10.271Z,66.50
2019-03-30T02:15:41.476Z,65.94
2019-03-30T02:18:12.681Z,65.80
2019-03-30T02:20:44.903Z,65.95
2019-03-30T02:23:16.489Z,66.59
2019-03-30T02:25:47.619Z,66.49
2019-03-30T02:28:18.833Z,66.90
2019-03-30T02:30:51.068Z,66.46
2019-03-30T02:33:30.572Z,65.96
2019-03-30T02:36:02.868Z,67.04
2019-03-30T02:38:34.003Z,66.51
2019-03-30T02:41:08.245Z,66.56
2019-03-30T02:43:39.450Z,66.52
2019-03-30T02:46:10.745Z,65.78
2019-03-30T02:48:42.152Z,66.82
2019-03-30T02:51:13.507Z,66.30
2019-03-30T02:53:44.840Z,66.37
2019-03-30T02:56:16.238Z,66.18
2019-03-30T02:58:48.736Z,66.12
2019-03-30T03:01:22.539Z,66.96
2019-03-30T03:03:57.531Z,66.71
2019-03-30T03:06:28.620Z,66.46
2019-03-30T03:08:59.869Z,66.63
2019-03-30T03:11:33.876Z,66.43
2019-03-30T03:14:07.035Z,66.57
2019-03-30T03:16:38.238Z,66.28
2019-03-30T03:19:09.509Z,65.88
2019-03-30T03:21:40.631Z,65.88
2019-03-30T03:24:12.752Z,66.10
2019-03-30T03:26:43.849Z,66.01
2019-03-30T03:29:15.103Z,65.97
2019-03-30T03:31:46.291Z,66.00
2019-03-30T03:34:18.574Z,66.01
2019-03-30T03:36:50.762Z,66.22
2019-03-30T03:39:21.982Z,66.09
2019-03-30T03:41:53.076Z,66.75
2019-03-30T03:44:25.208Z,66.86
2019-03-30T03:46:56.432Z,66.22
2019-03-30T03:49:27.737Z,65.91
2019-03-30T03:51:59.081Z,66.38
2019-03-30T03:54:30.749Z,66.65
2019-03-30T03:57:03.659Z,65.81
2019-03-30T03:59:40.708Z,65.84
2019-03-30T04:02:13.192Z,66.10
2019-03-30T04:04:47.564Z,65.61
2019-03-30T04:07:19.556Z,65.52
2019-03-30T04:09:52.524Z,65.81
2019-03-30T04:12:24.930Z,65.60
2019-03-30T04:15:01.630Z,65.75
2019-03-30T04:17:37.370Z,66.02
2019-03-30T04:20:15.933Z,65.64
2019-03-30T04:22:47.148Z,65.32
2019-03-30T04:25:18.303Z,65.75
2019-03-30T04:27:49.443Z,65.72
2019-03-30T04:30:20.598Z,65.58
2019-03-30T04:32:52.803Z,65.82
2019-03-30T04:35:23.985Z,65.76
2019-03-30T04:38:03.197Z,66.33
2019-03-30T04:40:34.721Z,66.32
2019-03-30T04:43:05.848Z,65.93
2019-03-30T04:45:37.058Z,65.75
2019-03-30T04:48:08.178Z,65.38
2019-03-30T04:50:39.315Z,65.70
2019-03-30T04:53:10.762Z,66.21
2019-03-30T04:55:42.180Z,65.95
2019-03-30T04:58:13.301Z,65.75
2019-03-30T05:00:45.521Z,65.82
2019-03-30T05:03:16.693Z,65.76
2019-03-30T05:05:47.932Z,65.21
2019-03-30T05:08:27.170Z,65.29
2019-03-30T05:10:58.357Z,65.71
2019-03-30T05:13:31.762Z,65.48
2019-03-30T05:16:02.977Z,65.32
2019-03-30T05:18:38.161Z,64.99
2019-03-30T05:21:09.358Z,66.03
2019-03-30T05:23:44.696Z,65.60
2019-03-30T05:26:16.904Z,65.56
2019-03-30T05:28:48.034Z,65.74
2019-03-30T05:31:21.262Z,66.00
2019-03-30T05:34:00.290Z,65.95
2019-03-30T05:36:33.519Z,65.11
2019-03-30T05:39:12.607Z,66.22
2019-03-30T05:41:43.867Z,66.12
2019-03-30T05:44:15.115Z,66.63
2019-03-30T05:46:46.244Z,65.95
2019-03-30T05:49:17.385Z,66.71
2019-03-30T05:51:48.600Z,66.29
2019-03-30T05:54:19.798Z,66.61
2019-03-30T05:56:50.987Z,66.62
2019-03-30T05:59:22.275Z,66.15
2019-03-30T06:01:53.447Z,66.18
2019-03-30T06:04:24.750Z,65.85
2019-03-30T06:06:55.992Z,65.25
2019-03-30T06:09:27.252Z,65.84
2019-03-30T06:11:59.373Z,65.23
2019-03-30T06:14:35.692Z,65.16
2019-03-30T06:17:06.927Z,64.23
2019-03-30T06:19:38.092Z,62.84
2019-03-30T06:22:09.274Z,62.21
2019-03-30T06:24:46.333Z,60.83
2019-03-30T06:27:18.521Z,59.84
2019-03-30T06:30:26.039Z,59.12
2019-03-30T06:32:59.100Z,58.82
2019-03-30T06:35:34.406Z,57.76
2019-03-30T06:38:05.669Z,57.30
2019-03-30T06:40:40.900Z,57.03
2019-03-30T06:43:12.153Z,57.20
2019-03-30T06:45:46.606Z,56.28
2019-03-30T06:48:22.102Z,56.42
2019-03-30T06:50:53.331Z,56.69
2019-03-30T06:53:25.574Z,56.64
2019-03-30T06:55:57.783Z,56.53
2019-03-30T06:58:30.763Z,56.60
2019-03-30T07:01:02.253Z,56.03
2019-03-30T07:03:35.504Z,56.35
2019-03-30T07:06:06.930Z,56.45
2019-03-30T07:08:39.030Z,56.08
2019-03-30T07:11:21.055Z,55.46
2019-03-30T07:13:45.161Z,55.65
2019-03-30T07:16:17.051Z,54.29
2019-03-30T07:18:48.883Z,54.61
2019-03-30T07:21:20.011Z,53.31
2019-03-30T07:23:57.242Z,53.91
2019-03-30T07:26:28.403Z,53.25
2019-03-30T07:28:59.628Z,52.80
2019-03-30T07:31:30.866Z,52.88
2019-03-30T07:34:02.021Z,52.33
2019-03-30T07:36:38.514Z,51.83
2019-03-30T07:39:09.760Z,51.17
2019-03-30T07:41:42.059Z,50.95
2019-03-30T07:44:16.432Z,50.73
2019-03-30T07:46:47.586Z,50.53
2019-03-30T07:49:18.778Z,50.12
2019-03-30T07:51:49.847Z,49.84
2019-03-30T07:54:21.504Z,49.92
2019-03-30T07:57:04.126Z,49.80
2019-03-30T07:59:28.550Z,49.04
2019-03-30T08:01:59.737Z,49.34
2019-03-30T08:04:47.055Z,48.72
2019-03-30T08:07:18.393Z,48.78
2019-03-30T08:09:49.531Z,48.15
2019-03-30T08:12:27.273Z,48.41
2019-03-30T08:14:58.530Z,48.26
2019-03-30T08:17:29.822Z,47.61
2019-03-30T08:20:02.049Z,47.39
2019-03-30T08:22:38.807Z,46.99
2019-03-30T08:25:10.072Z,47.39
2019-03-30T08:27:44.269Z,47.85
2019-03-30T08:30:16.135Z,48.15
2019-03-30T08:32:47.370Z,47.16
2019-03-30T08:35:18.640Z,47.51
2019-03-30T08:37:50.093Z,47.14
2019-03-30T08:40:21.300Z,47.21
2019-03-30T08:42:52.637Z,46.60
2019-03-30T08:45:24.910Z,47.02
2019-03-30T08:48:00.562Z,47.17
2019-03-30T08:50:37.626Z,46.63
2019-03-30T08:53:08.783Z,46.03
2019-03-30T08:55:39.955Z,46.15
2019-03-30T08:58:11.481Z,46.12
2019-03-30T09:00:43.503Z,45.56
2019-03-30T09:03:14.774Z,43.74
2019-03-30T09:05:46.986Z,45.12
2019-03-30T09:08:18.138Z,42.67
2019-03-30T09:10:49.231Z,42.98
2019-03-30T09:13:23.763Z,42.04
2019-03-30T09:15:56.992Z,41.76
2019-03-30T09:18:28.140Z,41.89
2019-03-30T09:21:00.332Z,41.43
2019-03-30T09:23:31.616Z,41.47
2019-03-30T09:26:03.740Z,41.17
2019-03-30T09:28:36.098Z,41.72
2019-03-30T09:31:07.283Z,41.57
2019-03-30T09:33:42.317Z,41.42
2019-03-30T09:36:15.553Z,41.29
2019-03-30T09:38:46.857Z,40.59
2019-03-30T09:41:23.933Z,40.80
2019-03-30T09:43:55.082Z,41.23
2019-03-30T09:46:27.235Z,41.47
2019-03-30T09:49:00.107Z,40.70
2019-03-30T09:51:32.386Z,40.63
2019-03-30T09:54:03.628Z,40.98
2019-03-30T09:56:34.780Z,40.47
2019-03-30T09:59:06.068Z,40.62
2019-03-30T10:01:41.308Z,41.41
2019-03-30T10:04:12.530Z,41.83
2019-03-30T10:06:44.756Z,40.55
2019-03-30T10:09:33.452Z,39.76
2019-03-30T10:12:04.694Z,40.19
2019-03-30T10:14:38.996Z,39.44
2019-03-30T10:17:15.329Z,39.81
2019-03-30T10:19:58.034Z,40.23
2019-03-30T10:22:24.269Z,40.15
2019-03-30T10:24:58.261Z,39.15
2019-03-30T10:27:29.337Z,39.66
2019-03-30T10:30:00.519Z,39.41
2019-03-30T10:32:31.773Z,40.57
2019-03-30T10:35:09.717Z,39.89
2019-03-30T10:37:41.167Z,39.20
2019-03-30T10:40:12.668Z,38.52
2019-03-30T10:42:43.838Z,39.42
2019-03-30T10:45:15.129Z,38.86
2019-03-30T10:47:46.400Z,37.93
2019-03-30T10:50:17.679Z,39.61
2019-03-30T10:52:48.946Z,38.49
2019-03-30T10:55:20.251Z,37.77
2019-03-30T10:57:58.801Z,36.53
2019-03-30T11:00:38.748Z,35.62
2019-03-30T11:03:09.894Z,35.89
2019-03-30T11:05:42.040Z,35.84
2019-03-30T11:08:14.288Z,35.70
2019-03-30T11:10:46.121Z,36.03
2019-03-30T11:13:17.251Z,35.72
2019-03-30T11:15:48.578Z,35.29
2019-03-30T11:18:26.067Z,35.50
2019-03-30T11:21:02.754Z,35.31
2019-03-30T11:23:33.943Z,34.05
2019-03-30T11:26:11.724Z,33.99
2019-03-30T11:28:55.480Z,34.44
2019-03-30T11:31:32.201Z,33.85
2019-03-30T11:34:13.431Z,34.42
2019-03-30T11:36:44.651Z,33.64
2019-03-30T11:39:40.278Z,33.11
2019-03-30T11:42:11.573Z,30.27
2019-03-30T11:44:42.693Z,30.83
2019-03-30T11:47:14.935Z,30.39
2019-03-30T11:49:46.136Z,31.33
2019-03-30T11:52:19.228Z,29.71
2019-03-30T11:54:50.379Z,30.52
2019-03-30T11:57:23.632Z,30.65
2019-03-30T11:59:55.831Z,30.49
2019-03-30T12:02:45.017Z,30.99
2019-03-30T12:05:19.958Z,31.49
2019-03-30T12:07:54.475Z,30.51
2019-03-30T12:10:26.710Z,30.32
2019-03-30T12:12:58.864Z,30.25
2019-03-30T12:15:30.103Z,29.96
2019-03-30T12:18:09.451Z,30.33
2019-03-30T12:20:40.733Z,30.76
2019-03-30T12:23:11.855Z,29.25
2019-03-30T12:25:44.007Z,29.48
2019-03-30T12:28:15.329Z,29.35
2019-03-30T12:30:46.605Z,29.68
2019-03-30T12:33:18.928Z,29.00
2019-03-30T12:35:50.081Z,30.00
2019-03-30T12:38:21.334Z,29.71
2019-03-30T12:40:53.107Z,29.60
2019-03-30T12:43:25.461Z,29.77
2019-03-30T12:45:59.472Z,29.63
2019-03-30T12:48:32.669Z,30.08
2019-03-30T12:51:06.536Z,29.90
2019-03-30T12:53:50.106Z,29.88
2019-03-30T12:56:17.693Z,30.73
2019-03-30T12:58:57.009Z,30.37
2019-03-30T13:01:31.191Z,30.75
2019-03-30T13:04:02.943Z,30.33
2019-03-30T13:06:44.659Z,30.62
2019-03-30T13:09:35.079Z,30.16
2019-03-30T13:12:08.901Z,30.11
2019-03-30T13:14:41.127Z,30.09
2019-03-30T13:17:14.535Z,30.55
2019-03-30T13:19:56.182Z,30.98
2019-03-30T13:22:34.258Z,31.40
2019-03-30T13:25:07.344Z,31.38
2019-03-30T13:27:40.951Z,31.69
2019-03-30T13:30:13.248Z,31.26
2019-03-30T13:32:45.963Z,30.86
2019-03-30T13:35:20.700Z,30.94
2019-03-30T13:37:53.770Z,31.31
2019-03-30T13:40:29.007Z,30.49
2019-03-30T13:43:00.326Z,31.32
2019-03-30T13:45:31.591Z,30.42
2019-03-30T13:48:05.041Z,30.54
2019-03-30T13:50:39.513Z,30.30
2019-03-30T13:53:12.651Z,30.64
2019-03-30T13:55:43.963Z,31.03
2019-03-30T13:58:15.336Z,30.99
2019-03-30T14:00:48.616Z,31.11
2019-03-30T14:03:21.799Z,29.60
2019-03-30T14:05:57.667Z,30.08
2019-03-30T14:08:30.049Z,30.43
2019-03-30T14:11:03.312Z,30.63
2019-03-30T14:13:40.704Z,30.99
2019-03-30T14:16:11.930Z,30.94
2019-03-30T14:18:45.107Z,30.70
2019-03-30T14:21:16.453Z,30.88
2019-03-30T14:23:47.587Z,31.38
2019-03-30T14:26:30.837Z,30.86
2019-03-30T14:29:02.420Z,30.70
2019-03-30T14:31:41.466Z,31.19
2019-03-30T14:34:18.272Z,30.35
2019-03-30T14:36:52.493Z,30.78
2019-03-30T14:39:23.827Z,30.68
2019-03-30T14:42:00.696Z,30.71
2019-03-30T14:44:33.095Z,30.79
2019-03-30T14:47:13.410Z,30.42
2019-03-30T14:49:46.586Z,30.60
2019-03-30T14:52:19.664Z,31.02
2019-03-30T14:54:58.624Z,30.75
2019-03-30T14:57:35.914Z,30.55
2019-03-30T15:00:08.103Z,30.44
2019-03-30T15:02:39.281Z,31.21
2019-03-30T15:05:10.541Z,30.57
2019-03-30T15:07:42.842Z,33.27
2019-03-30T15:10:14.142Z,31.33
2019-03-30T15:12:45.479Z,31.95
2019-03-30T15:15:18.099Z,31.34
2019-03-30T15:17:49.292Z,31.62
2019-03-30T15:20:25.538Z,31.24
2019-03-30T15:22:56.709Z,31.91
2019-03-30T15:25:27.907Z,31.80
2019-03-30T15:28:02.058Z,31.42
2019-03-30T15:30:35.275Z,31.84
2019-03-30T15:33:07.425Z,31.99
2019-03-30T15:35:42.397Z,32.01
2019-03-30T15:38:14.518Z,31.89
2019-03-30T15:40:45.923Z,31.76
2019-03-30T15:43:37.154Z,32.20
2019-03-30T15:45:59.649Z,31.92
2019-03-30T15:48:36.872Z,32.79
2019-03-30T15:51:08.201Z,32.51
2019-03-30T15:53:39.429Z,32.55
2019-03-30T15:56:43.273Z,32.41
2019-03-30T15:59:22.197Z,32.69
2019-03-30T16:06:22.249Z,33.33
2019-03-30T16:08:54.507Z,32.89
2019-03-30T16:11:32.941Z,32.67
2019-03-30T16:14:04.882Z,33.33
2019-03-30T16:16:56.125Z,33.46
2019-03-30T16:19:45.266Z,33.58
2019-03-30T16:22:18.608Z,33.79
2019-03-30T16:24:49.908Z,33.54
2019-03-30T16:27:28.917Z,34.24
2019-03-30T16:29:58.445Z,34.49
2019-03-30T16:32:33.863Z,34.77
2019-03-30T16:38:01.578Z,33.94
2019-03-30T16:40:40.847Z,34.27
2019-03-30T16:43:12.098Z,35.07
2019-03-30T16:45:43.520Z,34.96
2019-03-30T16:48:14.965Z,34.93
2019-03-30T16:50:46.249Z,34.94
2019-03-30T16:53:21.773Z,34.83
2019-03-30T16:55:53.055Z,33.94
2019-03-30T16:58:25.331Z,34.44
2019-03-30T17:00:57.195Z,34.83
2019-03-30T17:03:28.725Z,35.24
2019-03-30T17:06:03.955Z,35.25
2019-03-30T17:08:37.197Z,35.23
2019-03-30T17:11:09.052Z,35.44
2019-03-30T17:13:41.847Z,34.86
2019-03-30T17:16:13.027Z,35.28
2019-03-30T17:18:44.182Z,35.45
2019-03-30T17:21:15.381Z,35.51
2019-03-30T17:23:46.662Z,35.45
2019-03-30T17:26:18.985Z,35.22
2019-03-30T17:28:50.078Z,34.89
2019-03-30T17:31:26.569Z,35.40
2019-03-30T17:33:58.892Z,36.01
2019-03-30T17:36:30.262Z,35.46
2019-03-30T17:39:01.622Z,36.12
2019-03-30T17:41:36.701Z,36.28
2019-03-30T17:44:17.771Z,36.19
2019-03-30T17:46:48.892Z,35.59
2019-03-30T17:49:20.528Z,36.56
2019-03-30T17:51:59.779Z,36.16
2019-03-30T17:54:32.111Z,36.21
2019-03-30T17:57:03.564Z,36.66
2019-03-30T17:59:36.794Z,37.56
2019-03-30T18:02:11.403Z,37.88
2019-03-30T18:04:42.734Z,38.43
2019-03-30T18:07:14.120Z,39.58
2019-03-30T18:09:45.283Z,40.11
2019-03-30T18:12:16.612Z,38.87
2019-03-30T18:14:49.878Z,40.01
2019-03-30T18:17:21.097Z,40.04
2019-03-30T18:19:52.345Z,40.63
2019-03-30T18:22:23.547Z,40.70
2019-03-30T18:24:54.858Z,41.35
2019-03-30T18:27:26.166Z,41.54
2019-03-30T18:29:57.244Z,42.21
2019-03-30T18:32:28.419Z,42.72
2019-03-30T18:35:00.654Z,42.10
2019-03-30T18:37:33.852Z,42.34
2019-03-30T18:40:06.780Z,42.54
2019-03-30T18:42:40.064Z,43.10
2019-03-30T18:45:25.193Z,43.79
2019-03-30T18:48:10.274Z,43.65
2019-03-30T18:50:42.224Z,44.35
2019-03-30T18:53:13.825Z,45.05
2019-03-30T18:55:45.215Z,45.17
2019-03-30T18:58:16.479Z,45.40
2019-03-30T19:00:47.702Z,45.91
2019-03-30T19:03:20.208Z,46.48
2019-03-30T19:05:52.252Z,46.88
2019-03-30T19:08:23.484Z,46.63
2019-03-30T19:10:54.750Z,46.77
2019-03-30T19:13:26.126Z,47.15
2019-03-30T19:15:57.293Z,47.63
2019-03-30T19:18:28.773Z,48.08
2019-03-30T19:21:04.076Z,48.16
2019-03-30T19:23:35.315Z,48.15
2019-03-30T19:26:06.661Z,48.23
2019-03-30T19:28:37.889Z,48.86
2019-03-30T19:31:09.123Z,48.73
2019-03-30T19:33:40.314Z,49.03
2019-03-30T19:36:12.786Z,48.69
2019-03-30T19:38:44.041Z,48.98
2019-03-30T19:41:16.264Z,49.55
2019-03-30T19:43:47.601Z,49.84
2019-03-30T19:46:18.849Z,50.07
2019-03-30T19:48:50.100Z,50.00
2019-03-30T19:51:32.589Z,49.82
2019-03-30T19:54:03.858Z,50.32
2019-03-30T19:56:35.373Z,50.68
2019-03-30T19:59:10.931Z,50.87
2019-03-30T20:01:40.128Z,51.02
2019-03-30T20:04:12.763Z,51.78
2019-03-30T20:06:44.048Z,51.88
2019-03-30T20:09:15.521Z,51.74
2019-03-30T20:11:47.293Z,51.75
2019-03-30T20:14:18.549Z,52.02
2019-03-30T20:16:49.852Z,51.93
2019-03-30T20:19:28.055Z,51.61
2019-03-30T20:22:03.081Z,51.42
2019-03-30T20:24:34.394Z,51.57
2019-03-30T20:27:06.891Z,51.61
2019-03-30T20:29:39.116Z,51.86
2019-03-30T20:32:10.491Z,51.37
2019-03-30T20:34:48.534Z,51.84
2019-03-30T20:37:22.322Z,52.37
2019-03-30T20:39:59.712Z,52.13
2019-03-30T20:42:38.184Z,52.99
2019-03-30T20:45:09.856Z,53.90
2019-03-30T20:47:44.877Z,53.86
2019-03-30T20:50:18.133Z,53.51
2019-03-30T20:52:49.673Z,53.36
2019-03-30T20:55:22.049Z,53.41
2019-03-30T20:57:59.717Z,53.79
2019-03-30T21:00:30.969Z,53.62
2019-03-30T21:03:03.317Z,53.94
2019-03-30T21:05:34.712Z,53.22
2019-03-30T21:08:07.848Z,53.19
2019-03-30T21:10:39.140Z,53.34
2019-03-30T21:13:11.277Z,52.26
2019-03-30T21:15:44.505Z,52.52
2019-03-30T21:18:17.659Z,53.74
2019-03-30T21:20:49.138Z,53.25
2019-03-30T21:23:28.331Z,52.60
2019-03-30T21:25:59.629Z,52.65
2019-03-30T21:28:32.886Z,52.97
2019-03-30T21:31:04.129Z,53.02
2019-03-30T21:33:48.428Z,53.37
2019-03-30T21:36:20.846Z,53.73
2019-03-30T21:38:52.038Z,53.73
2019-03-30T21:41:25.228Z,53.92
2019-03-30T21:43:57.365Z,53.87
2019-03-30T21:46:28.542Z,53.60
2019-03-30T21:49:01.767Z,54.43
2019-03-30T21:51:33.059Z,54.41
2019-03-30T21:54:05.316Z,54.40
2019-03-30T21:56:36.525Z,54.60
2019-03-30T21:59:07.758Z,54.66
2019-03-30T22:01:39.018Z,53.90
2019-03-30T22:04:10.205Z,53.97
2019-03-30T22:06:41.415Z,54.44
2019-03-30T22:09:12.674Z,54.66
2019-03-30T22:11:43.920Z,54.99
2019-03-30T22:14:15.963Z,55.16
2019-03-30T22:16:47.203Z,55.66
2019-03-30T22:19:18.487Z,55.57
2019-03-30T22:21:56.166Z,55.52
2019-03-30T22:24:27.653Z,55.10
2019-03-30T22:26:58.814Z,56.19
2019-03-30T22:29:36.812Z,56.23
2019-03-30T22:32:07.987Z,55.40
2019-03-30T22:34:39.131Z,55.71
2019-03-30T22:37:11.038Z,55.86
2019-03-30T22:39:42.374Z,56.74
2019-03-30T22:42:13.742Z,56.84
2019-03-30T22:44:44.912Z,56.75
2019-03-30T22:47:16.155Z,56.78
2019-03-30T22:49:47.455Z,56.22
2019-03-30T22:52:20.355Z,57.26
2019-03-30T22:54:51.435Z,57.09
2019-03-30T22:57:38.772Z,57.50
2019-03-30T23:00:39.039Z,57.23
2019-03-30T23:03:12.126Z,57.80
2019-03-30T23:05:43.542Z,57.93
2019-03-30T23:08:14.773Z,58.22
2019-03-30T23:10:46.813Z,58.49
2019-03-30T23:13:20.678Z,58.09
2019-03-30T23:15:57.825Z,57.83
2019-03-30T23:18:31.146Z,58.16
2019-03-30T23:21:02.772Z,58.62
2019-03-30T23:23:39.970Z,58.88
2019-03-30T23:26:11.554Z,59.08
2019-03-30T23:28:43.072Z,59.53
2019-03-30T23:31:23.090Z,58.82
2019-03-30T23:33:56.130Z,58.42
2019-03-30T23:36:29.513Z,59.67
2019-03-30T23:39:00.882Z,60.10
2019-03-30T23:41:33.443Z,60.29
2019-03-30T23:44:05.228Z,60.23
2019-03-30T23:46:36.453Z,59.94
2019-03-30T23:49:07.902Z,60.24
2019-03-30T23:51:39.925Z,60.26
2019-03-30T23:54:15.531Z,59.96
2019-03-30T23:56:47.206Z,60.53
2019-03-30T23:59:20.224Z,60.63
